sensor_id;sensor_type;location;lat;lon;timestamp;pressure;altitude;pressure_sealevel;temperature;humidity
39769;BME280;38939;47.824;14.642;2023-06-14T00:00:33;96419.31;;;14.75;64.02
39769;BME280;38939;47.824;14.642;2023-06-14T00:01:37;96424.81;;;14.73;64.27
39769;BME280;38939;47.824;14.642;2023-06-14T00:02:40;96421.78;;;14.65;65.50
39769;BME280;38939;47.824;14.642;2023-06-14T00:03:43;96426.50;;;14.63;65.89
39769;BME280;38939;47.824;14.642;2023-06-14T00:04:45;96427.50;;;14.62;65.96
39769;BME280;38939;47.824;14.642;2023-06-14T00:05:50;96418.28;;;14.59;66.62
39769;BME280;38939;47.824;14.642;2023-06-14T00:06:52;96423.19;;;14.55;66.03
39769;BME280;38939;47.824;14.642;2023-06-14T00:07:55;96426.03;;;14.54;65.95
39769;BME280;38939;47.824;14.642;2023-06-14T00:08:57;96425.25;;;14.53;65.92
39769;BME280;38939;47.824;14.642;2023-06-14T00:09:59;96425.81;;;14.55;65.98
39769;BME280;38939;47.824;14.642;2023-06-14T00:11:01;96427.44;;;14.56;65.98
39769;BME280;38939;47.824;14.642;2023-06-14T00:12:03;96426.94;;;14.59;65.39
39769;BME280;38939;47.824;14.642;2023-06-14T00:13:10;96430.47;;;14.65;66.27
39769;BME280;38939;47.824;14.642;2023-06-14T00:14:12;96426.56;;;14.68;66.86
39769;BME280;38939;47.824;14.642;2023-06-14T00:15:14;96426.50;;;14.63;67.15
39769;BME280;38939;47.824;14.642;2023-06-14T00:16:16;96426.72;;;14.61;67.31
39769;BME280;38939;47.824;14.642;2023-06-14T00:17:18;96437.00;;;14.63;66.81
39769;BME280;38939;47.824;14.642;2023-06-14T00:18:21;96428.63;;;14.66;67.02
39769;BME280;38939;47.824;14.642;2023-06-14T00:19:26;96434.97;;;14.70;66.93
39769;BME280;38939;47.824;14.642;2023-06-14T00:20:28;96430.78;;;14.69;67.27
39769;BME280;38939;47.824;14.642;2023-06-14T00:21:31;96430.53;;;14.70;66.49
39769;BME280;38939;47.824;14.642;2023-06-14T00:22:33;96425.03;;;14.72;66.44
39769;BME280;38939;47.824;14.642;2023-06-14T00:23:35;96428.78;;;14.76;65.92
39769;BME280;38939;47.824;14.642;2023-06-14T00:24:37;96424.63;;;14.80;65.93
39769;BME280;38939;47.824;14.642;2023-06-14T00:25:39;96422.25;;;14.78;67.26
39769;BME280;38939;47.824;14.642;2023-06-14T00:26:41;96422.50;;;14.77;67.44
39769;BME280;38939;47.824;14.642;2023-06-14T00:27:43;96428.44;;;14.72;67.55
39769;BME280;38939;47.824;14.642;2023-06-14T00:28:45;96421.06;;;14.69;67.79
39769;BME280;38939;47.824;14.642;2023-06-14T00:29:48;96417.09;;;14.67;67.94
39769;BME280;38939;47.824;14.642;2023-06-14T00:30:50;96423.38;;;14.66;67.72
39769;BME280;38939;47.824;14.642;2023-06-14T00:31:51;96424.31;;;14.59;68.21
39769;BME280;38939;47.824;14.642;2023-06-14T00:32:54;96421.59;;;14.54;68.38
39769;BME280;38939;47.824;14.642;2023-06-14T00:33:56;96416.94;;;14.56;68.20
39769;BME280;38939;47.824;14.642;2023-06-14T00:34:58;96418.53;;;14.57;68.19
39769;BME280;38939;47.824;14.642;2023-06-14T00:36:00;96416.44;;;14.59;67.64
39769;BME280;38939;47.824;14.642;2023-06-14T00:37:02;96413.59;;;14.61;68.27
39769;BME280;38939;47.824;14.642;2023-06-14T00:38:04;96410.19;;;14.60;68.21
39769;BME280;38939;47.824;14.642;2023-06-14T00:39:06;96410.47;;;14.64;67.60
39769;BME280;38939;47.824;14.642;2023-06-14T00:40:08;96410.97;;;14.61;67.55
39769;BME280;38939;47.824;14.642;2023-06-14T00:41:10;96409.34;;;14.60;67.85
39769;BME280;38939;47.824;14.642;2023-06-14T00:42:26;96408.38;;;14.49;67.88
39769;BME280;38939;47.824;14.642;2023-06-14T00:43:28;96407.28;;;14.45;68.13
39769;BME280;38939;47.824;14.642;2023-06-14T00:44:30;96409.00;;;14.39;68.40
39769;BME280;38939;47.824;14.642;2023-06-14T00:45:32;96408.78;;;14.41;67.78
39769;BME280;38939;47.824;14.642;2023-06-14T00:46:37;96401.22;;;14.45;67.94
39769;BME280;38939;47.824;14.642;2023-06-14T00:47:41;96411.50;;;14.46;68.41
39769;BME280;38939;47.824;14.642;2023-06-14T00:48:44;96409.09;;;14.45;67.59
39769;BME280;38939;47.824;14.642;2023-06-14T00:49:48;96410.44;;;14.47;67.57
39769;BME280;38939;47.824;14.642;2023-06-14T00:50:51;96406.81;;;14.48;67.44
39769;BME280;38939;47.824;14.642;2023-06-14T00:51:54;96408.56;;;14.43;67.47
39769;BME280;38939;47.824;14.642;2023-06-14T00:52:56;96408.13;;;14.34;68.04
39769;BME280;38939;47.824;14.642;2023-06-14T00:53:59;96409.56;;;14.25;68.84
39769;BME280;38939;47.824;14.642;2023-06-14T00:55:02;96405.91;;;14.26;67.71
39769;BME280;38939;47.824;14.642;2023-06-14T00:56:05;96412.09;;;14.19;69.04
39769;BME280;38939;47.824;14.642;2023-06-14T00:57:08;96406.28;;;14.17;69.05
39769;BME280;38939;47.824;14.642;2023-06-14T00:58:11;96409.97;;;14.16;68.67
39769;BME280;38939;47.824;14.642;2023-06-14T00:59:13;96405.16;;;14.13;69.12
39769;BME280;38939;47.824;14.642;2023-06-14T01:00:17;96407.56;;;14.15;68.04
39769;BME280;38939;47.824;14.642;2023-06-14T01:01:19;96401.03;;;14.17;67.58
39769;BME280;38939;47.824;14.642;2023-06-14T01:02:21;96403.19;;;14.20;67.34
39769;BME280;38939;47.824;14.642;2023-06-14T01:03:23;96410.03;;;14.21;67.70
39769;BME280;38939;47.824;14.642;2023-06-14T01:04:27;96406.84;;;14.19;67.95
39769;BME280;38939;47.824;14.642;2023-06-14T01:05:30;96404.72;;;14.16;67.36
39769;BME280;38939;47.824;14.642;2023-06-14T01:09:20;96398.34;;;14.12;68.02
39769;BME280;38939;47.824;14.642;2023-06-14T01:11:50;96404.25;;;13.91;70.19
39769;BME280;38939;47.824;14.642;2023-06-14T01:12:58;96405.88;;;13.92;69.21
39769;BME280;38939;47.824;14.642;2023-06-14T01:14:06;96406.41;;;13.94;68.89
39769;BME280;38939;47.824;14.642;2023-06-14T01:15:09;96403.09;;;13.98;68.21
39769;BME280;38939;47.824;14.642;2023-06-14T01:16:13;96402.94;;;14.05;67.98
39769;BME280;38939;47.824;14.642;2023-06-14T01:17:16;96405.88;;;14.09;67.84
39769;BME280;38939;47.824;14.642;2023-06-14T01:18:19;96406.66;;;14.09;67.81
39769;BME280;38939;47.824;14.642;2023-06-14T01:19:22;96404.84;;;14.10;68.47
39769;BME280;38939;47.824;14.642;2023-06-14T01:20:29;96404.53;;;14.06;69.50
39769;BME280;38939;47.824;14.642;2023-06-14T01:21:32;96403.72;;;14.06;69.34
39769;BME280;38939;47.824;14.642;2023-06-14T01:22:53;96396.34;;;14.03;69.26
39769;BME280;38939;47.824;14.642;2023-06-14T01:23:55;96398.16;;;14.02;68.83
39769;BME280;38939;47.824;14.642;2023-06-14T01:24:57;96394.16;;;13.99;68.67
39769;BME280;38939;47.824;14.642;2023-06-14T01:26:01;96395.69;;;13.95;69.59
39769;BME280;38939;47.824;14.642;2023-06-14T01:27:06;96405.38;;;13.95;68.90
39769;BME280;38939;47.824;14.642;2023-06-14T01:28:09;96392.25;;;13.95;69.10
39769;BME280;38939;47.824;14.642;2023-06-14T01:29:14;96402.19;;;13.93;69.28
39769;BME280;38939;47.824;14.642;2023-06-14T01:30:23;96402.13;;;13.88;68.96
39769;BME280;38939;47.824;14.642;2023-06-14T01:31:27;96401.88;;;13.89;68.57
39769;BME280;38939;47.824;14.642;2023-06-14T01:32:31;96403.31;;;13.97;68.44
39769;BME280;38939;47.824;14.642;2023-06-14T01:33:34;96407.06;;;14.01;68.34
39769;BME280;38939;47.824;14.642;2023-06-14T01:34:37;96399.19;;;14.01;68.33
39769;BME280;38939;47.824;14.642;2023-06-14T01:35:43;96396.34;;;14.03;67.77
39769;BME280;38939;47.824;14.642;2023-06-14T01:36:47;96397.63;;;14.00;68.43
39769;BME280;38939;47.824;14.642;2023-06-14T01:37:50;96394.50;;;14.03;68.34
39769;BME280;38939;47.824;14.642;2023-06-14T01:38:53;96396.91;;;14.05;67.67
39769;BME280;38939;47.824;14.642;2023-06-14T01:39:58;96395.56;;;14.02;67.57
39769;BME280;38939;47.824;14.642;2023-06-14T01:41:01;96397.75;;;13.93;68.27
39769;BME280;38939;47.824;14.642;2023-06-14T01:42:04;96394.00;;;13.89;67.81
39769;BME280;38939;47.824;14.642;2023-06-14T01:43:09;96395.97;;;13.82;69.28
39769;BME280;38939;47.824;14.642;2023-06-14T01:44:14;96396.34;;;13.74;69.19
39769;BME280;38939;47.824;14.642;2023-06-14T01:45:18;96392.34;;;13.71;68.34
39769;BME280;38939;47.824;14.642;2023-06-14T01:46:21;96396.16;;;13.64;68.58
39769;BME280;38939;47.824;14.642;2023-06-14T01:47:25;96402.66;;;13.61;68.59
39769;BME280;38939;47.824;14.642;2023-06-14T01:48:27;96402.34;;;13.57;69.02
39769;BME280;38939;47.824;14.642;2023-06-14T01:49:29;96395.16;;;13.53;69.14
39769;BME280;38939;47.824;14.642;2023-06-14T01:50:31;96399.16;;;13.55;69.16
39769;BME280;38939;47.824;14.642;2023-06-14T01:51:33;96401.53;;;13.57;68.57
39769;BME280;38939;47.824;14.642;2023-06-14T01:52:36;96393.78;;;13.62;68.92
39769;BME280;38939;47.824;14.642;2023-06-14T01:53:39;96394.09;;;13.66;68.54
39769;BME280;38939;47.824;14.642;2023-06-14T01:54:41;96392.84;;;13.68;68.21
39769;BME280;38939;47.824;14.642;2023-06-14T01:55:44;96395.34;;;13.63;69.30
39769;BME280;38939;47.824;14.642;2023-06-14T01:56:50;96393.78;;;13.62;68.58
39769;BME280;38939;47.824;14.642;2023-06-14T01:57:53;96396.41;;;13.62;68.27
39769;BME280;38939;47.824;14.642;2023-06-14T01:58:55;96397.19;;;13.63;68.57
39769;BME280;38939;47.824;14.642;2023-06-14T01:59:57;96397.22;;;13.51;69.67
39769;BME280;38939;47.824;14.642;2023-06-14T02:00:59;96397.03;;;13.40;70.70
39769;BME280;38939;47.824;14.642;2023-06-14T02:02:03;96404.78;;;13.35;70.37
39769;BME280;38939;47.824;14.642;2023-06-14T02:03:05;96404.22;;;13.33;70.70
39769;BME280;38939;47.824;14.642;2023-06-14T02:04:07;96396.22;;;13.28;70.92
39769;BME280;38939;47.824;14.642;2023-06-14T02:05:09;96394.75;;;13.32;70.36
39769;BME280;38939;47.824;14.642;2023-06-14T02:06:12;96399.22;;;13.32;71.01
39769;BME280;38939;47.824;14.642;2023-06-14T02:07:14;96400.22;;;13.31;70.45
39769;BME280;38939;47.824;14.642;2023-06-14T02:08:16;96397.00;;;13.29;70.85
39769;BME280;38939;47.824;14.642;2023-06-14T02:09:18;96398.84;;;13.28;70.18
39769;BME280;38939;47.824;14.642;2023-06-14T02:10:20;96406.28;;;13.31;69.58
39769;BME280;38939;47.824;14.642;2023-06-14T02:11:22;96403.88;;;13.30;70.20
39769;BME280;38939;47.824;14.642;2023-06-14T02:12:24;96403.28;;;13.28;70.89
39769;BME280;38939;47.824;14.642;2023-06-14T02:13:26;96405.13;;;13.27;69.86
39769;BME280;38939;47.824;14.642;2023-06-14T02:14:28;96404.09;;;13.28;70.10
39769;BME280;38939;47.824;14.642;2023-06-14T02:15:30;96404.69;;;13.30;69.74
39769;BME280;38939;47.824;14.642;2023-06-14T02:16:36;96407.31;;;13.30;69.76
39769;BME280;38939;47.824;14.642;2023-06-14T02:17:39;96410.13;;;13.29;69.70
39769;BME280;38939;47.824;14.642;2023-06-14T02:18:41;96406.03;;;13.33;69.75
39769;BME280;38939;47.824;14.642;2023-06-14T02:19:43;96416.06;;;13.36;69.41
39769;BME280;38939;47.824;14.642;2023-06-14T02:20:45;96406.50;;;13.30;70.85
39769;BME280;38939;47.824;14.642;2023-06-14T02:21:47;96406.28;;;13.19;70.69
39769;BME280;38939;47.824;14.642;2023-06-14T02:22:49;96411.16;;;13.16;71.20
39769;BME280;38939;47.824;14.642;2023-06-14T02:23:51;96417.19;;;13.16;70.84
39769;BME280;38939;47.824;14.642;2023-06-14T02:24:53;96416.97;;;13.18;70.45
39769;BME280;38939;47.824;14.642;2023-06-14T02:26:03;96416.06;;;13.24;69.94
39769;BME280;38939;47.824;14.642;2023-06-14T02:27:05;96416.19;;;13.29;69.76
39769;BME280;38939;47.824;14.642;2023-06-14T02:28:08;96412.09;;;13.33;69.43
39769;BME280;38939;47.824;14.642;2023-06-14T02:29:10;96419.25;;;13.38;68.87
39769;BME280;38939;47.824;14.642;2023-06-14T02:30:14;96415.13;;;13.42;68.83
39769;BME280;38939;47.824;14.642;2023-06-14T02:31:17;96412.28;;;13.44;69.04
39769;BME280;38939;47.824;14.642;2023-06-14T02:32:20;96410.47;;;13.44;68.70
39769;BME280;38939;47.824;14.642;2023-06-14T02:33:22;96413.88;;;13.45;68.83
39769;BME280;38939;47.824;14.642;2023-06-14T02:34:25;96419.91;;;13.45;68.51
39769;BME280;38939;47.824;14.642;2023-06-14T02:35:27;96415.25;;;13.47;68.44
39769;BME280;38939;47.824;14.642;2023-06-14T02:36:29;96418.66;;;13.48;68.89
39769;BME280;38939;47.824;14.642;2023-06-14T02:37:32;96412.03;;;13.45;68.88
39769;BME280;38939;47.824;14.642;2023-06-14T02:38:34;96415.47;;;13.46;68.64
39769;BME280;38939;47.824;14.642;2023-06-14T02:39:35;96413.41;;;13.48;68.34
39769;BME280;38939;47.824;14.642;2023-06-14T02:40:38;96415.00;;;13.49;68.39
39769;BME280;38939;47.824;14.642;2023-06-14T02:41:42;96423.13;;;13.47;69.02
39769;BME280;38939;47.824;14.642;2023-06-14T02:42:44;96415.94;;;13.43;69.06
39769;BME280;38939;47.824;14.642;2023-06-14T02:43:46;96413.78;;;13.39;68.90
39769;BME280;38939;47.824;14.642;2023-06-14T02:44:48;96413.53;;;13.41;68.70
39769;BME280;38939;47.824;14.642;2023-06-14T02:45:52;96415.94;;;13.43;68.83
39769;BME280;38939;47.824;14.642;2023-06-14T02:46:54;96421.16;;;13.43;69.34
39769;BME280;38939;47.824;14.642;2023-06-14T02:47:57;96415.59;;;13.39;69.20
39769;BME280;38939;47.824;14.642;2023-06-14T02:48:59;96414.69;;;13.21;71.09
39769;BME280;38939;47.824;14.642;2023-06-14T02:50:02;96417.31;;;13.10;71.46
39769;BME280;38939;47.824;14.642;2023-06-14T02:51:05;96419.25;;;13.02;71.78
39769;BME280;38939;47.824;14.642;2023-06-14T02:52:08;96418.25;;;13.04;70.86
39769;BME280;38939;47.824;14.642;2023-06-14T02:53:11;96415.16;;;13.07;70.18
39769;BME280;38939;47.824;14.642;2023-06-14T02:54:13;96415.72;;;13.09;70.41
39769;BME280;38939;47.824;14.642;2023-06-14T02:55:15;96417.69;;;13.01;71.57
39769;BME280;38939;47.824;14.642;2023-06-14T02:56:17;96420.31;;;13.01;71.26
39769;BME280;38939;47.824;14.642;2023-06-14T02:57:22;96420.66;;;13.05;70.16
39769;BME280;38939;47.824;14.642;2023-06-14T02:58:24;96417.31;;;13.10;70.29
39769;BME280;38939;47.824;14.642;2023-06-14T02:59:26;96419.72;;;13.11;70.05
39769;BME280;38939;47.824;14.642;2023-06-14T03:00:28;96410.59;;;13.14;70.09
39769;BME280;38939;47.824;14.642;2023-06-14T03:01:32;96423.13;;;13.12;70.51
39769;BME280;38939;47.824;14.642;2023-06-14T03:02:37;96414.25;;;13.13;70.07
39769;BME280;38939;47.824;14.642;2023-06-14T03:03:39;96424.75;;;13.13;70.06
39769;BME280;38939;47.824;14.642;2023-06-14T03:04:41;96416.41;;;13.16;70.06
39769;BME280;38939;47.824;14.642;2023-06-14T03:05:47;96413.44;;;13.12;70.23
39769;BME280;38939;47.824;14.642;2023-06-14T03:06:52;96416.19;;;13.06;70.42
39769;BME280;38939;47.824;14.642;2023-06-14T03:07:55;96414.72;;;12.98;70.88
39769;BME280;38939;47.824;14.642;2023-06-14T03:08:58;96420.19;;;12.96;70.47
39769;BME280;38939;47.824;14.642;2023-06-14T03:10:08;96419.72;;;12.99;69.91
39769;BME280;38939;47.824;14.642;2023-06-14T03:11:15;96423.94;;;13.00;70.25
39769;BME280;38939;47.824;14.642;2023-06-14T03:12:18;96425.41;;;12.96;70.61
39769;BME280;38939;47.824;14.642;2023-06-14T03:13:22;96417.13;;;12.88;71.49
39769;BME280;38939;47.824;14.642;2023-06-14T03:14:24;96420.19;;;12.85;70.85
39769;BME280;38939;47.824;14.642;2023-06-14T03:15:26;96426.44;;;12.84;71.54
39769;BME280;38939;47.824;14.642;2023-06-14T03:16:29;96424.31;;;12.80;71.53
39769;BME280;38939;47.824;14.642;2023-06-14T03:17:31;96426.66;;;12.82;71.19
39769;BME280;38939;47.824;14.642;2023-06-14T03:18:35;96419.63;;;12.83;71.24
39769;BME280;38939;47.824;14.642;2023-06-14T03:19:38;96415.63;;;12.80;72.06
39769;BME280;38939;47.824;14.642;2023-06-14T03:20:43;96410.16;;;12.81;71.77
39769;BME280;38939;47.824;14.642;2023-06-14T03:21:47;96426.66;;;12.82;71.47
39769;BME280;38939;47.824;14.642;2023-06-14T03:22:50;96422.69;;;12.79;71.77
39769;BME280;38939;47.824;14.642;2023-06-14T03:23:53;96423.38;;;12.75;71.68
39769;BME280;38939;47.824;14.642;2023-06-14T03:24:56;96425.66;;;12.71;71.65
39769;BME280;38939;47.824;14.642;2023-06-14T03:25:58;96420.75;;;12.75;71.47
39769;BME280;38939;47.824;14.642;2023-06-14T03:27:00;96427.13;;;12.79;71.11
39769;BME280;38939;47.824;14.642;2023-06-14T03:28:02;96419.38;;;12.84;70.83
39769;BME280;38939;47.824;14.642;2023-06-14T03:29:04;96424.19;;;12.87;70.68
39769;BME280;38939;47.824;14.642;2023-06-14T03:30:07;96423.47;;;12.92;70.59
39769;BME280;38939;47.824;14.642;2023-06-14T03:31:09;96428.03;;;12.96;70.35
39769;BME280;38939;47.824;14.642;2023-06-14T03:32:11;96423.34;;;12.98;70.35
39769;BME280;38939;47.824;14.642;2023-06-14T03:33:13;96424.75;;;13.01;70.01
39769;BME280;38939;47.824;14.642;2023-06-14T03:34:17;96429.16;;;13.00;70.23
39769;BME280;38939;47.824;14.642;2023-06-14T03:35:19;96432.03;;;12.99;70.38
39769;BME280;38939;47.824;14.642;2023-06-14T03:36:21;96432.47;;;12.96;69.63
39769;BME280;38939;47.824;14.642;2023-06-14T03:37:24;96432.94;;;12.93;69.71
39769;BME280;38939;47.824;14.642;2023-06-14T03:38:26;96430.78;;;12.90;69.74
39769;BME280;38939;47.824;14.642;2023-06-14T03:39:28;96434.53;;;12.82;70.66
39769;BME280;38939;47.824;14.642;2023-06-14T03:40:30;96436.69;;;12.73;71.31
39769;BME280;38939;47.824;14.642;2023-06-14T03:41:35;96440.34;;;12.60;72.52
39769;BME280;38939;47.824;14.642;2023-06-14T03:42:37;96445.53;;;12.49;72.96
39769;BME280;38939;47.824;14.642;2023-06-14T03:43:39;96444.63;;;12.43;72.94
39769;BME280;38939;47.824;14.642;2023-06-14T03:44:41;96444.97;;;12.47;72.05
39769;BME280;38939;47.824;14.642;2023-06-14T03:45:43;96440.66;;;12.52;71.42
39769;BME280;38939;47.824;14.642;2023-06-14T03:46:45;96449.41;;;12.58;71.18
39769;BME280;38939;47.824;14.642;2023-06-14T03:47:48;96441.13;;;12.61;71.12
39769;BME280;38939;47.824;14.642;2023-06-14T03:48:50;96447.28;;;12.67;71.38
39769;BME280;38939;47.824;14.642;2023-06-14T03:49:52;96449.78;;;12.73;71.05
39769;BME280;38939;47.824;14.642;2023-06-14T03:50:54;96450.91;;;12.77;70.37
39769;BME280;38939;47.824;14.642;2023-06-14T03:52:00;96447.41;;;12.84;70.51
39769;BME280;38939;47.824;14.642;2023-06-14T03:53:05;96450.38;;;12.87;70.40
39769;BME280;38939;47.824;14.642;2023-06-14T03:54:07;96455.94;;;12.91;70.18
39769;BME280;38939;47.824;14.642;2023-06-14T03:55:12;96452.28;;;12.92;69.91
39769;BME280;38939;47.824;14.642;2023-06-14T03:56:18;96452.06;;;12.93;70.52
39769;BME280;38939;47.824;14.642;2023-06-14T03:57:20;96453.44;;;12.96;70.21
39769;BME280;38939;47.824;14.642;2023-06-14T03:58:23;96446.94;;;12.98;69.74
39769;BME280;38939;47.824;14.642;2023-06-14T03:59:26;96456.97;;;13.01;70.16
39769;BME280;38939;47.824;14.642;2023-06-14T04:00:28;96448.06;;;13.02;70.08
39769;BME280;38939;47.824;14.642;2023-06-14T04:01:31;96452.06;;;13.05;69.87
39769;BME280;38939;47.824;14.642;2023-06-14T04:02:33;96450.47;;;13.04;69.81
39769;BME280;38939;47.824;14.642;2023-06-14T04:03:35;96458.53;;;13.02;69.93
39769;BME280;38939;47.824;14.642;2023-06-14T04:04:38;96460.38;;;13.02;69.60
39769;BME280;38939;47.824;14.642;2023-06-14T04:05:39;96464.59;;;12.91;70.92
39769;BME280;38939;47.824;14.642;2023-06-14T04:06:44;96463.56;;;12.80;71.13
39769;BME280;38939;47.824;14.642;2023-06-14T04:07:50;96465.28;;;12.75;71.13
39769;BME280;38939;47.824;14.642;2023-06-14T04:08:52;96470.94;;;12.72;70.95
39769;BME280;38939;47.824;14.642;2023-06-14T04:09:55;96466.03;;;12.64;72.18
39769;BME280;38939;47.824;14.642;2023-06-14T04:10:57;96472.19;;;12.57;72.99
39769;BME280;38939;47.824;14.642;2023-06-14T04:11:59;96468.97;;;12.55;72.49
39769;BME280;38939;47.824;14.642;2023-06-14T04:13:01;96473.78;;;12.58;72.19
39769;BME280;38939;47.824;14.642;2023-06-14T04:14:05;96473.78;;;12.58;72.24
39769;BME280;38939;47.824;14.642;2023-06-14T04:15:08;96470.69;;;12.61;72.77
39769;BME280;38939;47.824;14.642;2023-06-14T04:16:22;96477.66;;;12.68;72.43
39769;BME280;38939;47.824;14.642;2023-06-14T04:17:24;96478.78;;;12.72;72.28
39769;BME280;38939;47.824;14.642;2023-06-14T04:18:26;96475.16;;;12.73;72.25
39769;BME280;38939;47.824;14.642;2023-06-14T04:19:28;96477.53;;;12.74;72.77
39769;BME280;38939;47.824;14.642;2023-06-14T04:20:30;96477.78;;;12.73;73.22
39769;BME280;38939;47.824;14.642;2023-06-14T04:21:32;96474.91;;;12.74;72.27
39769;BME280;38939;47.824;14.642;2023-06-14T04:22:36;96481.31;;;12.78;72.03
39769;BME280;38939;47.824;14.642;2023-06-14T04:23:38;96479.84;;;12.83;71.88
39769;BME280;38939;47.824;14.642;2023-06-14T04:24:45;96479.38;;;12.86;72.10
39769;BME280;38939;47.824;14.642;2023-06-14T04:26:01;96484.19;;;12.89;71.97
39769;BME280;38939;47.824;14.642;2023-06-14T04:27:04;96481.66;;;12.94;72.11
39769;BME280;38939;47.824;14.642;2023-06-14T04:28:06;96477.56;;;12.98;72.18
39769;BME280;38939;47.824;14.642;2023-06-14T04:29:14;96479.75;;;13.01;72.02
39769;BME280;38939;47.824;14.642;2023-06-14T04:30:18;96482.47;;;13.06;71.69
39769;BME280;38939;47.824;14.642;2023-06-14T04:31:20;96480.97;;;13.10;71.90
39769;BME280;38939;47.824;14.642;2023-06-14T04:32:26;96483.94;;;13.14;71.34
39769;BME280;38939;47.824;14.642;2023-06-14T04:33:28;96486.91;;;13.17;71.08
39769;BME280;38939;47.824;14.642;2023-06-14T04:34:30;96485.66;;;13.20;71.02
39769;BME280;38939;47.824;14.642;2023-06-14T04:35:34;96486.22;;;13.22;71.04
39769;BME280;38939;47.824;14.642;2023-06-14T04:36:37;96489.06;;;13.20;71.71
39769;BME280;38939;47.824;14.642;2023-06-14T04:37:39;96490.31;;;13.18;71.14
39769;BME280;38939;47.824;14.642;2023-06-14T04:38:43;96496.34;;;13.18;71.00
39769;BME280;38939;47.824;14.642;2023-06-14T04:39:47;96501.72;;;13.24;71.09
39769;BME280;38939;47.824;14.642;2023-06-14T04:40:49;96496.00;;;13.27;71.18
39769;BME280;38939;47.824;14.642;2023-06-14T04:41:54;96495.78;;;13.28;71.03
39769;BME280;38939;47.824;14.642;2023-06-14T04:42:59;96496.84;;;13.27;71.38
39769;BME280;38939;47.824;14.642;2023-06-14T04:44:01;96504.13;;;13.25;71.67
39769;BME280;38939;47.824;14.642;2023-06-14T04:45:03;96502.28;;;13.26;71.32
39769;BME280;38939;47.824;14.642;2023-06-14T04:46:05;96495.78;;;13.28;71.18
39769;BME280;38939;47.824;14.642;2023-06-14T04:47:08;96507.66;;;13.31;71.46
39769;BME280;38939;47.824;14.642;2023-06-14T04:48:10;96505.94;;;13.36;71.11
39769;BME280;38939;47.824;14.642;2023-06-14T04:49:14;96498.66;;;13.38;71.27
39769;BME280;38939;47.824;14.642;2023-06-14T04:50:20;96501.28;;;13.38;71.60
39769;BME280;38939;47.824;14.642;2023-06-14T04:51:22;96506.19;;;13.35;71.80
39769;BME280;38939;47.824;14.642;2023-06-14T04:52:31;96512.22;;;13.35;72.31
39769;BME280;38939;47.824;14.642;2023-06-14T04:53:33;96500.16;;;13.34;71.86
39769;BME280;38939;47.824;14.642;2023-06-14T04:54:36;96498.31;;;13.35;71.58
39769;BME280;38939;47.824;14.642;2023-06-14T04:55:43;96506.53;;;13.38;71.50
39769;BME280;38939;47.824;14.642;2023-06-14T04:56:46;96507.09;;;13.40;71.51
39769;BME280;38939;47.824;14.642;2023-06-14T04:57:48;96503.69;;;13.40;71.18
39769;BME280;38939;47.824;14.642;2023-06-14T04:58:50;96503.91;;;13.38;71.65
39769;BME280;38939;47.824;14.642;2023-06-14T04:59:54;96507.31;;;13.39;71.65
39769;BME280;38939;47.824;14.642;2023-06-14T05:00:57;96505.50;;;13.39;71.23
39769;BME280;38939;47.824;14.642;2023-06-14T05:02:01;96500.84;;;13.42;71.57
39769;BME280;38939;47.824;14.642;2023-06-14T05:03:03;96509.50;;;13.42;71.32
39769;BME280;38939;47.824;14.642;2023-06-14T05:04:07;96517.13;;;13.44;71.36
39769;BME280;38939;47.824;14.642;2023-06-14T05:05:09;96507.44;;;13.44;71.46
39769;BME280;38939;47.824;14.642;2023-06-14T05:06:12;96510.63;;;13.46;71.73
39769;BME280;38939;47.824;14.642;2023-06-14T05:07:14;96503.56;;;13.47;71.52
39769;BME280;38939;47.824;14.642;2023-06-14T05:08:16;96504.13;;;13.49;71.57
39769;BME280;38939;47.824;14.642;2023-06-14T05:09:18;96503.09;;;13.50;71.37
39769;BME280;38939;47.824;14.642;2023-06-14T05:10:20;96504.94;;;13.49;71.43
39769;BME280;38939;47.824;14.642;2023-06-14T05:11:22;96503.66;;;13.52;71.43
39769;BME280;38939;47.824;14.642;2023-06-14T05:12:28;96502.41;;;13.54;72.09
39769;BME280;38939;47.824;14.642;2023-06-14T05:13:30;96511.63;;;13.57;71.94
39769;BME280;38939;47.824;14.642;2023-06-14T05:14:34;96504.59;;;13.57;72.27
39769;BME280;38939;47.824;14.642;2023-06-14T05:15:36;96511.63;;;13.57;72.50
39769;BME280;38939;47.824;14.642;2023-06-14T05:16:39;96515.28;;;13.56;73.02
39769;BME280;38939;47.824;14.642;2023-06-14T05:17:41;96514.81;;;13.59;72.49
39769;BME280;38939;47.824;14.642;2023-06-14T05:18:44;96510.69;;;13.63;72.56
39769;BME280;38939;47.824;14.642;2023-06-14T05:19:46;96506.59;;;13.67;72.92
39769;BME280;38939;47.824;14.642;2023-06-14T05:20:48;96519.25;;;13.70;72.68
39769;BME280;38939;47.824;14.642;2023-06-14T05:21:50;96518.78;;;13.73;72.82
39769;BME280;38939;47.824;14.642;2023-06-14T05:22:53;96517.53;;;13.76;72.36
39769;BME280;38939;47.824;14.642;2023-06-14T05:23:55;96513.88;;;13.77;71.75
39769;BME280;38939;47.824;14.642;2023-06-14T05:24:57;96520.94;;;13.76;71.79
39769;BME280;38939;47.824;14.642;2023-06-14T05:25:59;96515.03;;;13.69;71.33
39769;BME280;38939;47.824;14.642;2023-06-14T05:27:04;96518.69;;;13.68;71.37
39769;BME280;38939;47.824;14.642;2023-06-14T05:28:07;96513.44;;;13.68;71.47
39769;BME280;38939;47.824;14.642;2023-06-14T05:29:09;96515.84;;;13.70;71.20
39769;BME280;38939;47.824;14.642;2023-06-14T05:30:11;96518.56;;;13.75;71.58
39769;BME280;38939;47.824;14.642;2023-06-14T05:31:13;96518.09;;;13.78;71.18
39769;BME280;38939;47.824;14.642;2023-06-14T05:32:18;96523.56;;;13.76;71.12
39769;BME280;38939;47.824;14.642;2023-06-14T05:33:21;96516.03;;;13.80;71.55
39769;BME280;38939;47.824;14.642;2023-06-14T05:34:23;96514.44;;;13.79;71.80